Decoded Metar for KHHR (HAWTHORNE in CA, USA) (IATA:HHR) | Meteo·Mobile Aviation Weather
aviador You're here:

KHHR Decoded Metar

HAWTHORNE in CA, USA
Report Time2019-01-19 01:53:00
UTC Time2019-01-19 02:55:10
Flight Rules vfr VFR
Wind260° at 04 kt
W.Decomp.*RWY 25: 4.0 kt HW 0.3 kt LCW
W.Rank260° ranks 2
Current wind is below 260° avg. (8.3)
Visibility9999 m
Phenomena:N/A
Clouds:N/A
Expected CloudBase > 1,600 ft AGL from Temp-Dew spread
CeilingNone
Temp16°C (ISA +1)
Dew Point12°C (77% RH)
AAT15.2°C
QNH1024 hPa
Density Alt7 ft
Elevation59 ft
Report Wrong Elevation
Raw Report
KHHR 190153Z 26004KT 10SM CLR 16/12 A3024 RMK AO2 SLP240
T01560117=

Extra information for KHHR:More info

Metar Taf Metar & Taf Last 4 Metars F.Rules Stats Wind Profile Meteogram Temp Stats Airport Information Weather charts Add Link Nearby VenuesMetar ALERT Operation Metar Decoded Social comments

AIRNAV info for KHHR